sensor_id;sensor_type;location;lat;lon;timestamp;P1;durP1;ratioP1;P2;durP2;ratioP2
62554;SDS011;48610;52.144;8.624;2022-12-18T00:02:19;29.02;;;11.20;;
62554;SDS011;48610;52.144;8.624;2022-12-18T00:05:20;28.75;;;10.05;;
62554;SDS011;48610;52.144;8.624;2022-12-18T00:08:20;23.95;;;10.52;;
62554;SDS011;48610;52.144;8.624;2022-12-18T00:11:22;34.05;;;11.90;;
62554;SDS011;48610;52.144;8.624;2022-12-18T00:14:25;33.17;;;12.05;;
62554;SDS011;48610;52.144;8.624;2022-12-18T00:17:25;36.95;;;11.32;;
62554;SDS011;48610;52.144;8.624;2022-12-18T00:20:27;25.08;;;10.88;;
62554;SDS011;48610;52.144;8.624;2022-12-18T00:23:28;32.15;;;10.63;;
62554;SDS011;48610;52.144;8.624;2022-12-18T00:26:32;28.48;;;10.85;;
62554;SDS011;48610;52.144;8.624;2022-12-18T00:29:33;25.92;;;11.05;;
62554;SDS011;48610;52.144;8.624;2022-12-18T00:32:34;28.38;;;11.55;;
62554;SDS011;48610;52.144;8.624;2022-12-18T00:35:34;24.58;;;10.85;;
62554;SDS011;48610;52.144;8.624;2022-12-18T00:38:35;23.25;;;9.52;;
62554;SDS011;48610;52.144;8.624;2022-12-18T00:41:36;22.95;;;10.00;;
62554;SDS011;48610;52.144;8.624;2022-12-18T00:44:55;29.05;;;10.82;;
62554;SDS011;48610;52.144;8.624;2022-12-18T00:47:56;28.55;;;10.13;;
62554;SDS011;48610;52.144;8.624;2022-12-18T00:50:57;24.98;;;10.23;;
62554;SDS011;48610;52.144;8.624;2022-12-18T00:53:58;22.85;;;10.63;;
62554;SDS011;48610;52.144;8.624;2022-12-18T00:56:58;24.17;;;10.70;;
62554;SDS011;48610;52.144;8.624;2022-12-18T00:59:59;29.65;;;10.55;;
62554;SDS011;48610;52.144;8.624;2022-12-18T01:02:59;25.45;;;10.63;;
62554;SDS011;48610;52.144;8.624;2022-12-18T01:06:05;27.00;;;10.18;;
62554;SDS011;48610;52.144;8.624;2022-12-18T01:09:07;30.23;;;10.38;;
62554;SDS011;48610;52.144;8.624;2022-12-18T01:12:07;41.13;;;9.45;;
62554;SDS011;48610;52.144;8.624;2022-12-18T01:15:09;23.98;;;8.82;;
62554;SDS011;48610;52.144;8.624;2022-12-18T01:18:11;24.20;;;9.05;;
62554;SDS011;48610;52.144;8.624;2022-12-18T01:21:13;24.73;;;9.48;;
62554;SDS011;48610;52.144;8.624;2022-12-18T01:24:15;21.60;;;8.80;;
62554;SDS011;48610;52.144;8.624;2022-12-18T01:27:16;18.85;;;8.35;;
62554;SDS011;48610;52.144;8.624;2022-12-18T01:30:17;24.33;;;10.40;;
62554;SDS011;48610;52.144;8.624;2022-12-18T01:33:17;26.02;;;10.52;;
62554;SDS011;48610;52.144;8.624;2022-12-18T01:36:25;22.17;;;8.95;;
62554;SDS011;48610;52.144;8.624;2022-12-18T01:39:30;21.73;;;8.35;;
62554;SDS011;48610;52.144;8.624;2022-12-18T01:42:31;18.50;;;8.63;;
62554;SDS011;48610;52.144;8.624;2022-12-18T01:45:32;20.15;;;9.68;;
62554;SDS011;48610;52.144;8.624;2022-12-18T01:48:33;27.65;;;11.02;;
62554;SDS011;48610;52.144;8.624;2022-12-18T01:51:33;25.02;;;9.00;;
62554;SDS011;48610;52.144;8.624;2022-12-18T01:54:34;29.02;;;10.23;;
62554;SDS011;48610;52.144;8.624;2022-12-18T01:57:35;24.77;;;9.77;;
62554;SDS011;48610;52.144;8.624;2022-12-18T02:00:36;34.15;;;11.02;;
62554;SDS011;48610;52.144;8.624;2022-12-18T02:03:36;30.00;;;11.15;;
62554;SDS011;48610;52.144;8.624;2022-12-18T02:06:39;22.10;;;10.07;;
62554;SDS011;48610;52.144;8.624;2022-12-18T02:09:46;26.98;;;9.93;;
62554;SDS011;48610;52.144;8.624;2022-12-18T02:26:41;23.80;;;10.00;;
62554;SDS011;48610;52.144;8.624;2022-12-18T02:29:51;25.63;;;10.27;;
62554;SDS011;48610;52.144;8.624;2022-12-18T02:32:55;26.70;;;11.27;;
62554;SDS011;48610;52.144;8.624;2022-12-18T02:35:57;23.35;;;9.98;;
62554;SDS011;48610;52.144;8.624;2022-12-18T02:39:00;24.58;;;9.68;;
62554;SDS011;48610;52.144;8.624;2022-12-18T02:42:02;33.63;;;10.45;;
62554;SDS011;48610;52.144;8.624;2022-12-18T02:45:07;28.02;;;11.25;;
62554;SDS011;48610;52.144;8.624;2022-12-18T02:48:08;21.90;;;9.15;;
62554;SDS011;48610;52.144;8.624;2022-12-18T02:51:16;22.08;;;9.10;;
62554;SDS011;48610;52.144;8.624;2022-12-18T02:57:56;20.30;;;10.15;;
62554;SDS011;48610;52.144;8.624;2022-12-18T03:04:33;22.60;;;10.32;;
62554;SDS011;48610;52.144;8.624;2022-12-18T03:07:41;30.83;;;9.70;;
62554;SDS011;48610;52.144;8.624;2022-12-18T03:10:51;27.25;;;9.77;;
62554;SDS011;48610;52.144;8.624;2022-12-18T03:13:58;15.27;;;8.43;;
62554;SDS011;48610;52.144;8.624;2022-12-18T03:17:03;24.77;;;9.55;;
62554;SDS011;48610;52.144;8.624;2022-12-18T03:20:07;29.77;;;10.52;;
62554;SDS011;48610;52.144;8.624;2022-12-18T03:23:14;19.83;;;9.02;;
62554;SDS011;48610;52.144;8.624;2022-12-18T03:26:18;25.80;;;9.40;;
62554;SDS011;48610;52.144;8.624;2022-12-18T03:29:26;25.23;;;9.88;;
62554;SDS011;48610;52.144;8.624;2022-12-18T03:32:31;27.13;;;10.45;;
62554;SDS011;48610;52.144;8.624;2022-12-18T03:35:40;28.08;;;11.35;;
62554;SDS011;48610;52.144;8.624;2022-12-18T03:38:42;28.35;;;9.82;;
62554;SDS011;48610;52.144;8.624;2022-12-18T03:42:03;24.77;;;9.98;;
62554;SDS011;48610;52.144;8.624;2022-12-18T03:45:24;36.58;;;17.42;;
62554;SDS011;48610;52.144;8.624;2022-12-18T03:48:34;30.85;;;14.30;;
62554;SDS011;48610;52.144;8.624;2022-12-18T03:54:46;31.30;;;12.88;;
62554;SDS011;48610;52.144;8.624;2022-12-18T03:57:48;28.25;;;12.07;;
62554;SDS011;48610;52.144;8.624;2022-12-18T04:00:49;31.55;;;11.13;;
62554;SDS011;48610;52.144;8.624;2022-12-18T04:03:53;31.15;;;12.25;;
62554;SDS011;48610;52.144;8.624;2022-12-18T04:06:55;35.13;;;11.38;;
62554;SDS011;48610;52.144;8.624;2022-12-18T04:09:57;30.27;;;10.50;;
62554;SDS011;48610;52.144;8.624;2022-12-18T04:13:00;21.33;;;10.25;;
62554;SDS011;48610;52.144;8.624;2022-12-18T04:16:01;20.30;;;10.25;;
62554;SDS011;48610;52.144;8.624;2022-12-18T04:19:02;29.10;;;12.38;;
62554;SDS011;48610;52.144;8.624;2022-12-18T04:22:03;20.90;;;10.65;;
62554;SDS011;48610;52.144;8.624;2022-12-18T04:25:04;18.27;;;10.15;;
62554;SDS011;48610;52.144;8.624;2022-12-18T04:28:05;35.75;;;12.15;;
62554;SDS011;48610;52.144;8.624;2022-12-18T04:31:05;33.88;;;14.85;;
62554;SDS011;48610;52.144;8.624;2022-12-18T04:34:06;38.13;;;16.83;;
62554;SDS011;48610;52.144;8.624;2022-12-18T04:37:07;43.65;;;18.55;;
62554;SDS011;48610;52.144;8.624;2022-12-18T04:40:08;46.40;;;18.95;;
62554;SDS011;48610;52.144;8.624;2022-12-18T04:43:09;43.08;;;18.55;;
62554;SDS011;48610;52.144;8.624;2022-12-18T04:46:10;39.15;;;16.92;;
62554;SDS011;48610;52.144;8.624;2022-12-18T04:49:11;30.30;;;12.98;;
62554;SDS011;48610;52.144;8.624;2022-12-18T04:52:12;41.67;;;16.08;;
62554;SDS011;48610;52.144;8.624;2022-12-18T04:55:12;45.75;;;14.88;;
62554;SDS011;48610;52.144;8.624;2022-12-18T04:58:13;46.53;;;18.40;;
62554;SDS011;48610;52.144;8.624;2022-12-18T05:01:14;40.85;;;17.05;;
62554;SDS011;48610;52.144;8.624;2022-12-18T05:04:16;41.22;;;17.52;;
62554;SDS011;48610;52.144;8.624;2022-12-18T05:07:17;47.30;;;19.30;;
62554;SDS011;48610;52.144;8.624;2022-12-18T05:10:17;45.25;;;18.17;;
62554;SDS011;48610;52.144;8.624;2022-12-18T05:13:18;46.72;;;16.45;;
62554;SDS011;48610;52.144;8.624;2022-12-18T05:16:18;47.70;;;17.13;;
62554;SDS011;48610;52.144;8.624;2022-12-18T05:19:19;42.42;;;16.95;;
62554;SDS011;48610;52.144;8.624;2022-12-18T05:22:19;41.60;;;14.10;;
62554;SDS011;48610;52.144;8.624;2022-12-18T05:25:20;42.47;;;16.17;;
62554;SDS011;48610;52.144;8.624;2022-12-18T05:28:22;38.40;;;16.05;;
62554;SDS011;48610;52.144;8.624;2022-12-18T05:31:24;30.20;;;12.82;;
62554;SDS011;48610;52.144;8.624;2022-12-18T05:34:24;29.48;;;12.55;;
62554;SDS011;48610;52.144;8.624;2022-12-18T05:37:25;36.33;;;14.88;;
62554;SDS011;48610;52.144;8.624;2022-12-18T05:40:25;40.47;;;18.23;;
62554;SDS011;48610;52.144;8.624;2022-12-18T05:43:26;43.05;;;17.08;;
62554;SDS011;48610;52.144;8.624;2022-12-18T05:46:27;28.23;;;13.43;;
62554;SDS011;48610;52.144;8.624;2022-12-18T05:49:28;45.33;;;15.65;;
62554;SDS011;48610;52.144;8.624;2022-12-18T05:52:28;43.42;;;19.13;;
62554;SDS011;48610;52.144;8.624;2022-12-18T05:55:34;45.28;;;19.95;;
62554;SDS011;48610;52.144;8.624;2022-12-18T05:58:35;46.58;;;19.48;;
62554;SDS011;48610;52.144;8.624;2022-12-18T06:01:36;41.33;;;18.10;;
62554;SDS011;48610;52.144;8.624;2022-12-18T06:04:37;44.97;;;19.88;;
62554;SDS011;48610;52.144;8.624;2022-12-18T06:07:37;42.58;;;20.08;;
62554;SDS011;48610;52.144;8.624;2022-12-18T06:10:38;35.17;;;15.40;;
62554;SDS011;48610;52.144;8.624;2022-12-18T06:13:39;29.17;;;13.73;;
62554;SDS011;48610;52.144;8.624;2022-12-18T06:16:40;31.13;;;13.50;;
62554;SDS011;48610;52.144;8.624;2022-12-18T06:19:40;27.55;;;12.25;;
62554;SDS011;48610;52.144;8.624;2022-12-18T06:22:41;32.97;;;11.30;;
62554;SDS011;48610;52.144;8.624;2022-12-18T06:25:42;26.17;;;11.70;;
62554;SDS011;48610;52.144;8.624;2022-12-18T06:28:42;30.88;;;11.68;;
62554;SDS011;48610;52.144;8.624;2022-12-18T06:31:43;29.33;;;10.85;;
62554;SDS011;48610;52.144;8.624;2022-12-18T06:34:43;23.58;;;9.73;;
62554;SDS011;48610;52.144;8.624;2022-12-18T06:37:44;26.08;;;11.27;;
62554;SDS011;48610;52.144;8.624;2022-12-18T06:40:44;30.65;;;14.23;;
62554;SDS011;48610;52.144;8.624;2022-12-18T06:43:45;21.27;;;12.05;;
62554;SDS011;48610;52.144;8.624;2022-12-18T06:46:46;22.75;;;10.13;;
62554;SDS011;48610;52.144;8.624;2022-12-18T06:49:46;23.15;;;10.35;;
62554;SDS011;48610;52.144;8.624;2022-12-18T06:52:47;18.10;;;10.45;;
62554;SDS011;48610;52.144;8.624;2022-12-18T06:55:48;23.20;;;10.52;;
62554;SDS011;48610;52.144;8.624;2022-12-18T06:58:49;23.77;;;10.73;;
62554;SDS011;48610;52.144;8.624;2022-12-18T07:01:50;21.52;;;10.48;;
62554;SDS011;48610;52.144;8.624;2022-12-18T07:04:50;23.42;;;9.98;;
62554;SDS011;48610;52.144;8.624;2022-12-18T07:07:51;47.33;;;12.77;;
62554;SDS011;48610;52.144;8.624;2022-12-18T07:10:52;25.95;;;11.70;;
62554;SDS011;48610;52.144;8.624;2022-12-18T07:13:53;31.45;;;11.35;;
62554;SDS011;48610;52.144;8.624;2022-12-18T07:16:54;24.77;;;11.63;;
62554;SDS011;48610;52.144;8.624;2022-12-18T07:19:55;32.70;;;11.25;;
62554;SDS011;48610;52.144;8.624;2022-12-18T07:22:55;29.63;;;11.30;;
62554;SDS011;48610;52.144;8.624;2022-12-18T07:25:59;25.63;;;10.43;;
62554;SDS011;48610;52.144;8.624;2022-12-18T07:29:04;26.60;;;11.15;;
62554;SDS011;48610;52.144;8.624;2022-12-18T07:32:05;20.30;;;10.05;;
62554;SDS011;48610;52.144;8.624;2022-12-18T07:35:07;30.88;;;14.32;;
62554;SDS011;48610;52.144;8.624;2022-12-18T07:38:07;40.88;;;15.52;;
62554;SDS011;48610;52.144;8.624;2022-12-18T07:41:09;42.17;;;15.90;;
62554;SDS011;48610;52.144;8.624;2022-12-18T07:44:11;31.45;;;13.95;;
62554;SDS011;48610;52.144;8.624;2022-12-18T07:47:12;38.40;;;15.27;;
62554;SDS011;48610;52.144;8.624;2022-12-18T07:50:13;37.97;;;17.55;;
62554;SDS011;48610;52.144;8.624;2022-12-18T07:53:13;35.63;;;15.48;;
62554;SDS011;48610;52.144;8.624;2022-12-18T07:56:14;37.03;;;15.73;;
62554;SDS011;48610;52.144;8.624;2022-12-18T07:59:14;38.85;;;15.50;;
62554;SDS011;48610;52.144;8.624;2022-12-18T08:02:15;35.20;;;14.35;;
62554;SDS011;48610;52.144;8.624;2022-12-18T08:05:16;32.65;;;13.88;;
62554;SDS011;48610;52.144;8.624;2022-12-18T08:08:16;45.83;;;15.85;;
62554;SDS011;48610;52.144;8.624;2022-12-18T08:11:17;28.73;;;14.23;;
62554;SDS011;48610;52.144;8.624;2022-12-18T08:14:18;33.85;;;15.85;;
62554;SDS011;48610;52.144;8.624;2022-12-18T08:17:19;37.00;;;14.20;;
62554;SDS011;48610;52.144;8.624;2022-12-18T08:20:19;30.10;;;14.32;;
62554;SDS011;48610;52.144;8.624;2022-12-18T08:23:20;30.00;;;14.20;;
62554;SDS011;48610;52.144;8.624;2022-12-18T08:26:21;30.27;;;13.27;;
62554;SDS011;48610;52.144;8.624;2022-12-18T08:29:23;29.00;;;14.13;;
62554;SDS011;48610;52.144;8.624;2022-12-18T08:32:24;32.42;;;12.73;;
62554;SDS011;48610;52.144;8.624;2022-12-18T08:35:25;37.72;;;14.82;;
62554;SDS011;48610;52.144;8.624;2022-12-18T08:38:26;36.50;;;14.38;;
62554;SDS011;48610;52.144;8.624;2022-12-18T08:41:27;32.47;;;15.23;;
62554;SDS011;48610;52.144;8.624;2022-12-18T08:44:28;37.33;;;15.48;;
62554;SDS011;48610;52.144;8.624;2022-12-18T08:47:38;31.13;;;14.73;;
62554;SDS011;48610;52.144;8.624;2022-12-18T08:50:38;33.05;;;14.88;;
62554;SDS011;48610;52.144;8.624;2022-12-18T08:53:39;41.58;;;16.38;;
62554;SDS011;48610;52.144;8.624;2022-12-18T08:56:40;33.60;;;14.10;;
62554;SDS011;48610;52.144;8.624;2022-12-18T08:59:41;29.70;;;14.95;;
62554;SDS011;48610;52.144;8.624;2022-12-18T09:02:41;30.17;;;13.15;;
62554;SDS011;48610;52.144;8.624;2022-12-18T09:05:42;34.00;;;13.30;;
62554;SDS011;48610;52.144;8.624;2022-12-18T09:08:45;28.17;;;13.15;;
62554;SDS011;48610;52.144;8.624;2022-12-18T09:11:46;21.52;;;10.27;;
62554;SDS011;48610;52.144;8.624;2022-12-18T09:14:46;28.42;;;10.57;;
62554;SDS011;48610;52.144;8.624;2022-12-18T09:17:47;23.88;;;10.20;;
62554;SDS011;48610;52.144;8.624;2022-12-18T09:20:48;19.45;;;7.13;;
62554;SDS011;48610;52.144;8.624;2022-12-18T09:23:50;20.42;;;9.25;;
62554;SDS011;48610;52.144;8.624;2022-12-18T09:26:54;21.13;;;8.70;;
62554;SDS011;48610;52.144;8.624;2022-12-18T09:29:55;18.30;;;9.13;;
62554;SDS011;48610;52.144;8.624;2022-12-18T09:32:55;22.00;;;8.27;;
62554;SDS011;48610;52.144;8.624;2022-12-18T09:35:56;20.23;;;8.73;;
62554;SDS011;48610;52.144;8.624;2022-12-18T09:38:56;20.77;;;9.82;;
62554;SDS011;48610;52.144;8.624;2022-12-18T09:41:57;29.45;;;9.82;;
62554;SDS011;48610;52.144;8.624;2022-12-18T09:44:58;12.85;;;6.93;;
62554;SDS011;48610;52.144;8.624;2022-12-18T09:47:59;18.80;;;9.38;;
62554;SDS011;48610;52.144;8.624;2022-12-18T09:51:04;24.42;;;8.68;;
62554;SDS011;48610;52.144;8.624;2022-12-18T09:54:55;20.63;;;9.20;;
62554;SDS011;48610;52.144;8.624;2022-12-18T09:57:39;19.00;;;8.35;;
62554;SDS011;48610;52.144;8.624;2022-12-18T10:00:45;20.02;;;8.93;;
62554;SDS011;48610;52.144;8.624;2022-12-18T10:03:46;21.83;;;7.85;;
62554;SDS011;48610;52.144;8.624;2022-12-18T10:13:40;21.65;;;7.07;;
62554;SDS011;48610;52.144;8.624;2022-12-18T10:20:13;18.00;;;7.35;;
62554;SDS011;48610;52.144;8.624;2022-12-18T10:26:33;13.98;;;7.60;;
62554;SDS011;48610;52.144;8.624;2022-12-18T10:29:34;16.58;;;8.05;;
62554;SDS011;48610;52.144;8.624;2022-12-18T10:32:35;9.07;;;4.80;;
62554;SDS011;48610;52.144;8.624;2022-12-18T10:35:35;12.15;;;5.40;;
62554;SDS011;48610;52.144;8.624;2022-12-18T10:38:36;19.52;;;7.75;;
62554;SDS011;48610;52.144;8.624;2022-12-18T10:41:37;12.65;;;6.45;;
62554;SDS011;48610;52.144;8.624;2022-12-18T10:44:38;19.60;;;8.68;;
62554;SDS011;48610;52.144;8.624;2022-12-18T10:47:45;10.60;;;6.35;;
62554;SDS011;48610;52.144;8.624;2022-12-18T10:50:49;11.35;;;6.00;;
62554;SDS011;48610;52.144;8.624;2022-12-18T10:57:17;14.60;;;6.78;;
62554;SDS011;48610;52.144;8.624;2022-12-18T11:00:30;12.23;;;5.47;;
62554;SDS011;48610;52.144;8.624;2022-12-18T11:10:17;17.73;;;8.00;;
62554;SDS011;48610;52.144;8.624;2022-12-18T11:13:20;16.38;;;7.20;;
62554;SDS011;48610;52.144;8.624;2022-12-18T11:16:23;13.48;;;7.30;;
62554;SDS011;48610;52.144;8.624;2022-12-18T11:22:35;9.32;;;4.95;;
62554;SDS011;48610;52.144;8.624;2022-12-18T11:25:38;11.07;;;6.05;;
62554;SDS011;48610;52.144;8.624;2022-12-18T11:28:40;10.10;;;5.25;;
62554;SDS011;48610;52.144;8.624;2022-12-18T11:31:42;14.50;;;5.15;;
62554;SDS011;48610;52.144;8.624;2022-12-18T11:34:44;10.13;;;6.30;;
62554;SDS011;48610;52.144;8.624;2022-12-18T11:37:50;12.68;;;6.80;;
62554;SDS011;48610;52.144;8.624;2022-12-18T11:48:27;16.63;;;7.20;;
62554;SDS011;48610;52.144;8.624;2022-12-18T11:51:34;13.02;;;7.18;;
62554;SDS011;48610;52.144;8.624;2022-12-18T11:54:47;11.68;;;5.70;;
62554;SDS011;48610;52.144;8.624;2022-12-18T12:01:29;18.42;;;5.93;;
62554;SDS011;48610;52.144;8.624;2022-12-18T12:04:52;11.68;;;6.47;;
62554;SDS011;48610;52.144;8.624;2022-12-18T12:15:23;9.73;;;5.72;;
62554;SDS011;48610;52.144;8.624;2022-12-18T12:22:06;11.70;;;6.60;;
62554;SDS011;48610;52.144;8.624;2022-12-18T12:32:16;8.98;;;4.70;;
62554;SDS011;48610;52.144;8.624;2022-12-18T12:35:32;17.73;;;6.77;;
62554;SDS011;48610;52.144;8.624;2022-12-18T12:39:11;12.52;;;6.22;;
62554;SDS011;48610;52.144;8.624;2022-12-18T12:46:16;21.70;;;7.18;;
62554;SDS011;48610;52.144;8.624;2022-12-18T12:49:19;10.68;;;6.07;;
62554;SDS011;48610;52.144;8.624;2022-12-18T12:55:29;9.50;;;5.22;;
62554;SDS011;48610;52.144;8.624;2022-12-18T13:01:38;15.85;;;6.60;;
62554;SDS011;48610;52.144;8.624;2022-12-18T13:05:06;11.15;;;5.32;;
62554;SDS011;48610;52.144;8.624;2022-12-18T13:08:25;11.52;;;5.85;;
62554;SDS011;48610;52.144;8.624;2022-12-18T13:14:54;11.75;;;6.20;;
62554;SDS011;48610;52.144;8.624;2022-12-18T13:18:15;17.30;;;6.97;;
62554;SDS011;48610;52.144;8.624;2022-12-18T13:21:22;18.45;;;6.90;;
62554;SDS011;48610;52.144;8.624;2022-12-18T13:24:27;13.75;;;6.75;;
62554;SDS011;48610;52.144;8.624;2022-12-18T13:27:55;14.68;;;6.40;;
62554;SDS011;48610;52.144;8.624;2022-12-18T13:30:58;13.75;;;5.93;;
62554;SDS011;48610;52.144;8.624;2022-12-18T13:43:54;17.75;;;6.47;;
62554;SDS011;48610;52.144;8.624;2022-12-18T13:47:00;9.13;;;5.20;;
62554;SDS011;48610;52.144;8.624;2022-12-18T13:50:09;15.90;;;5.95;;
62554;SDS011;48610;52.144;8.624;2022-12-18T13:53:51;10.95;;;5.13;;
62554;SDS011;48610;52.144;8.624;2022-12-18T13:57:00;11.40;;;5.57;;
62554;SDS011;48610;52.144;8.624;2022-12-18T14:00:23;10.60;;;4.45;;
62554;SDS011;48610;52.144;8.624;2022-12-18T14:03:29;13.75;;;5.72;;
62554;SDS011;48610;52.144;8.624;2022-12-18T14:06:30;10.07;;;5.18;;
62554;SDS011;48610;52.144;8.624;2022-12-18T14:09:35;17.92;;;7.10;;
62554;SDS011;48610;52.144;8.624;2022-12-18T14:12:37;5.40;;;3.85;;
62554;SDS011;48610;52.144;8.624;2022-12-18T14:15:57;16.83;;;6.60;;
62554;SDS011;48610;52.144;8.624;2022-12-18T14:19:00;14.43;;;6.32;;
62554;SDS011;48610;52.144;8.624;2022-12-18T14:22:01;12.38;;;5.88;;
62554;SDS011;48610;52.144;8.624;2022-12-18T14:25:10;8.55;;;4.53;;
62554;SDS011;48610;52.144;8.624;2022-12-18T14:28:23;15.45;;;5.35;;
62554;SDS011;48610;52.144;8.624;2022-12-18T14:31:26;12.90;;;5.00;;
62554;SDS011;48610;52.144;8.624;2022-12-18T14:34:28;10.55;;;5.35;;
62554;SDS011;48610;52.144;8.624;2022-12-18T14:37:29;16.98;;;7.35;;
62554;SDS011;48610;52.144;8.624;2022-12-18T14:40:31;7.95;;;4.13;;
62554;SDS011;48610;52.144;8.624;2022-12-18T14:43:32;14.73;;;6.60;;
62554;SDS011;48610;52.144;8.624;2022-12-18T14:46:35;9.52;;;4.95;;
62554;SDS011;48610;52.144;8.624;2022-12-18T14:49:38;10.68;;;6.78;;
62554;SDS011;48610;52.144;8.624;2022-12-18T14:52:42;9.15;;;4.72;;
62554;SDS011;48610;52.144;8.624;2022-12-18T14:55:45;29.38;;;7.13;;
62554;SDS011;48610;52.144;8.624;2022-12-18T14:58:51;10.85;;;5.78;;
62554;SDS011;48610;52.144;8.624;2022-12-18T15:04:59;12.80;;;6.28;;
62554;SDS011;48610;52.144;8.624;2022-12-18T15:08:02;13.80;;;6.25;;
62554;SDS011;48610;52.144;8.624;2022-12-18T15:11:02;12.95;;;5.13;;
62554;SDS011;48610;52.144;8.624;2022-12-18T15:14:22;18.42;;;6.38;;
62554;SDS011;48610;52.144;8.624;2022-12-18T15:17:31;13.40;;;6.85;;
62554;SDS011;48610;52.144;8.624;2022-12-18T15:20:33;12.05;;;5.82;;
62554;SDS011;48610;52.144;8.624;2022-12-18T15:23:50;19.52;;;6.50;;
62554;SDS011;48610;52.144;8.624;2022-12-18T15:26:52;18.48;;;6.97;;
62554;SDS011;48610;52.144;8.624;2022-12-18T15:30:11;14.73;;;6.70;;
62554;SDS011;48610;52.144;8.624;2022-12-18T15:33:23;11.35;;;5.95;;
62554;SDS011;48610;52.144;8.624;2022-12-18T15:36:26;11.18;;;6.05;;
62554;SDS011;48610;52.144;8.624;2022-12-18T15:39:27;14.35;;;5.88;;
62554;SDS011;48610;52.144;8.624;2022-12-18T15:42:28;14.88;;;6.55;;
62554;SDS011;48610;52.144;8.624;2022-12-18T15:45:47;12.00;;;6.03;;
62554;SDS011;48610;52.144;8.624;2022-12-18T15:48:52;6.28;;;3.95;;
62554;SDS011;48610;52.144;8.624;2022-12-18T15:51:58;14.65;;;6.00;;
62554;SDS011;48610;52.144;8.624;2022-12-18T15:54:59;15.10;;;6.85;;
62554;SDS011;48610;52.144;8.624;2022-12-18T15:58:19;12.23;;;5.78;;
62554;SDS011;48610;52.144;8.624;2022-12-18T16:01:21;15.77;;;7.03;;
62554;SDS011;48610;52.144;8.624;2022-12-18T16:04:23;11.60;;;5.90;;
62554;SDS011;48610;52.144;8.624;2022-12-18T16:07:25;12.13;;;4.85;;
62554;SDS011;48610;52.144;8.624;2022-12-18T16:10:26;19.70;;;7.45;;
62554;SDS011;48610;52.144;8.624;2022-12-18T16:13:26;13.68;;;7.57;;
62554;SDS011;48610;52.144;8.624;2022-12-18T16:16:27;17.55;;;7.95;;
62554;SDS011;48610;52.144;8.624;2022-12-18T16:19:28;14.02;;;7.07;;
62554;SDS011;48610;52.144;8.624;2022-12-18T16:22:29;15.02;;;6.55;;
62554;SDS011;48610;52.144;8.624;2022-12-18T16:25:30;12.98;;;7.13;;
62554;SDS011;48610;52.144;8.624;2022-12-18T16:28:31;14.68;;;6.22;;
62554;SDS011;48610;52.144;8.624;2022-12-18T16:31:32;14.55;;;7.10;;
62554;SDS011;48610;52.144;8.624;2022-12-18T16:34:33;10.43;;;5.53;;
62554;SDS011;48610;52.144;8.624;2022-12-18T16:37:34;16.02;;;7.45;;
62554;SDS011;48610;52.144;8.624;2022-12-18T16:40:35;10.45;;;6.38;;
62554;SDS011;48610;52.144;8.624;2022-12-18T16:43:56;15.60;;;6.05;;
62554;SDS011;48610;52.144;8.624;2022-12-18T16:46:57;12.52;;;6.15;;
62554;SDS011;48610;52.144;8.624;2022-12-18T16:50:01;17.73;;;8.60;;
62554;SDS011;48610;52.144;8.624;2022-12-18T16:53:02;15.70;;;7.18;;
62554;SDS011;48610;52.144;8.624;2022-12-18T16:56:03;11.93;;;6.03;;
62554;SDS011;48610;52.144;8.624;2022-12-18T16:59:04;9.00;;;5.13;;
62554;SDS011;48610;52.144;8.624;2022-12-18T17:02:08;14.82;;;7.53;;
62554;SDS011;48610;52.144;8.624;2022-12-18T17:05:15;13.63;;;6.10;;
62554;SDS011;48610;52.144;8.624;2022-12-18T17:08:16;17.70;;;8.15;;
62554;SDS011;48610;52.144;8.624;2022-12-18T17:11:16;16.55;;;7.07;;
62554;SDS011;48610;52.144;8.624;2022-12-18T17:14:18;15.30;;;7.93;;
62554;SDS011;48610;52.144;8.624;2022-12-18T17:17:20;9.88;;;6.03;;
62554;SDS011;48610;52.144;8.624;2022-12-18T17:20:20;20.10;;;9.30;;
62554;SDS011;48610;52.144;8.624;2022-12-18T17:23:21;21.70;;;9.40;;
62554;SDS011;48610;52.144;8.624;2022-12-18T17:26:22;11.77;;;5.65;;
62554;SDS011;48610;52.144;8.624;2022-12-18T17:29:22;16.08;;;8.10;;
62554;SDS011;48610;52.144;8.624;2022-12-18T17:32:23;18.85;;;7.70;;
62554;SDS011;48610;52.144;8.624;2022-12-18T17:35:24;20.90;;;8.88;;
62554;SDS011;48610;52.144;8.624;2022-12-18T17:38:24;9.50;;;5.70;;
62554;SDS011;48610;52.144;8.624;2022-12-18T17:41:25;17.73;;;7.90;;
62554;SDS011;48610;52.144;8.624;2022-12-18T17:44:27;15.05;;;7.57;;
62554;SDS011;48610;52.144;8.624;2022-12-18T17:47:28;20.92;;;8.35;;
62554;SDS011;48610;52.144;8.624;2022-12-18T17:50:31;21.58;;;9.88;;
62554;SDS011;48610;52.144;8.624;2022-12-18T17:53:32;17.50;;;8.15;;
62554;SDS011;48610;52.144;8.624;2022-12-18T17:56:33;12.98;;;6.68;;
62554;SDS011;48610;52.144;8.624;2022-12-18T17:59:34;16.65;;;6.10;;
62554;SDS011;48610;52.144;8.624;2022-12-18T18:02:34;17.73;;;8.80;;
62554;SDS011;48610;52.144;8.624;2022-12-18T18:05:35;21.33;;;7.60;;
62554;SDS011;48610;52.144;8.624;2022-12-18T18:08:36;24.05;;;8.65;;
62554;SDS011;48610;52.144;8.624;2022-12-18T18:11:37;15.57;;;6.93;;
62554;SDS011;48610;52.144;8.624;2022-12-18T18:14:55;13.45;;;7.43;;
62554;SDS011;48610;52.144;8.624;2022-12-18T18:17:56;24.38;;;12.00;;
62554;SDS011;48610;52.144;8.624;2022-12-18T18:20:57;11.60;;;5.78;;
62554;SDS011;48610;52.144;8.624;2022-12-18T18:24:01;17.75;;;7.88;;
62554;SDS011;48610;52.144;8.624;2022-12-18T18:27:03;15.20;;;6.53;;
62554;SDS011;48610;52.144;8.624;2022-12-18T18:30:04;17.73;;;8.90;;
62554;SDS011;48610;52.144;8.624;2022-12-18T18:33:05;16.92;;;7.22;;
62554;SDS011;48610;52.144;8.624;2022-12-18T18:36:08;17.13;;;7.47;;
62554;SDS011;48610;52.144;8.624;2022-12-18T18:39:09;21.73;;;8.73;;
62554;SDS011;48610;52.144;8.624;2022-12-18T18:42:10;19.77;;;9.27;;
62554;SDS011;48610;52.144;8.624;2022-12-18T18:45:10;15.80;;;7.82;;
62554;SDS011;48610;52.144;8.624;2022-12-18T18:48:11;14.50;;;7.80;;
62554;SDS011;48610;52.144;8.624;2022-12-18T18:51:13;23.48;;;11.02;;
62554;SDS011;48610;52.144;8.624;2022-12-18T18:54:15;27.13;;;9.27;;
62554;SDS011;48610;52.144;8.624;2022-12-18T18:57:16;19.92;;;6.57;;
62554;SDS011;48610;52.144;8.624;2022-12-18T19:00:17;21.05;;;9.15;;
62554;SDS011;48610;52.144;8.624;2022-12-18T19:03:17;16.35;;;8.20;;
62554;SDS011;48610;52.144;8.624;2022-12-18T19:06:21;18.33;;;9.05;;
62554;SDS011;48610;52.144;8.624;2022-12-18T19:09:23;23.48;;;10.88;;
62554;SDS011;48610;52.144;8.624;2022-12-18T19:12:24;25.55;;;12.05;;
62554;SDS011;48610;52.144;8.624;2022-12-18T19:15:43;13.63;;;7.00;;
62554;SDS011;48610;52.144;8.624;2022-12-18T19:18:44;23.02;;;9.25;;
62554;SDS011;48610;52.144;8.624;2022-12-18T19:21:45;21.65;;;10.07;;
62554;SDS011;48610;52.144;8.624;2022-12-18T19:24:46;22.60;;;9.15;;
62554;SDS011;48610;52.144;8.624;2022-12-18T19:27:47;24.38;;;9.57;;
62554;SDS011;48610;52.144;8.624;2022-12-18T19:30:47;21.77;;;9.88;;
62554;SDS011;48610;52.144;8.624;2022-12-18T19:33:48;23.20;;;10.23;;
62554;SDS011;48610;52.144;8.624;2022-12-18T19:36:49;32.15;;;11.05;;
62554;SDS011;48610;52.144;8.624;2022-12-18T19:39:50;22.88;;;10.55;;
62554;SDS011;48610;52.144;8.624;2022-12-18T19:42:50;19.00;;;10.15;;
62554;SDS011;48610;52.144;8.624;2022-12-18T19:45:54;20.27;;;9.18;;
62554;SDS011;48610;52.144;8.624;2022-12-18T19:48:54;24.15;;;10.82;;